createdAt,value
2023-04-01T00:01:29.268Z,100270.06
2023-04-01T00:03:57.404Z,100272.97
2023-04-01T00:06:24.685Z,100271.28
2023-04-01T00:08:51.646Z,100279.44
2023-04-01T00:11:23.992Z,100279.63
2023-04-01T00:13:50.662Z,100289.69
2023-04-01T00:16:22.129Z,100278.81
2023-04-01T00:18:50.704Z,100281.53
2023-04-01T00:21:17.759Z,100276.28
2023-04-01T00:23:44.858Z,100282.75
2023-04-01T00:26:13.280Z,100285.84
2023-04-01T00:28:41.342Z,100286.03
2023-04-01T00:31:09.771Z,100284.72
2023-04-01T00:33:37.042Z,100283.84
2023-04-01T00:36:32.898Z,100285.25
2023-04-01T00:39:09.170Z,100287.31
2023-04-01T00:41:36.637Z,100283.09
2023-04-01T00:44:26.173Z,100291.41
2023-04-01T00:46:56.042Z,100283.44
2023-04-01T00:49:30.948Z,100284.66
2023-04-01T00:52:01.275Z,100285.84
2023-04-01T00:54:31.176Z,100277.25
2023-04-01T00:57:11.476Z,100282.00
2023-04-01T00:59:45.242Z,100287.00
2023-04-01T01:02:14.012Z,100286.13
2023-04-01T01:04:40.903Z,100289.03
2023-04-01T01:07:16.630Z,100284.63
2023-04-01T01:09:55.437Z,100291.94
2023-04-01T01:12:31.915Z,100287.34
2023-04-01T01:15:04.607Z,100291.75
2023-04-01T01:17:40.781Z,100295.31
2023-04-01T01:20:25.464Z,100298.22
2023-04-01T01:23:19.640Z,100297.19
2023-04-01T01:26:27.069Z,100305.34
2023-04-01T01:29:12.705Z,100309.09
2023-04-01T01:31:57.352Z,100304.31
2023-04-01T01:34:28.178Z,100315.22
2023-04-01T01:37:04.543Z,100316.22
2023-04-01T01:39:34.784Z,100309.78
2023-04-01T01:42:09.682Z,100320.47
2023-04-01T01:44:38.744Z,100313.13
2023-04-01T01:47:06.714Z,100313.31
2023-04-01T01:49:34.959Z,100317.94
2023-04-01T01:52:08.415Z,100316.03
2023-04-01T01:54:35.113Z,100316.22
2023-04-01T01:57:18.346Z,100314.53
2023-04-01T01:59:49.292Z,100318.31
2023-04-01T02:02:17.993Z,100321.03
2023-04-01T02:04:47.407Z,100320.34
2023-04-01T02:07:28.744Z,100323.44
2023-04-01T02:09:55.709Z,100324.44
2023-04-01T02:12:23.921Z,100323.63
2023-04-01T02:14:59.084Z,100326.53
2023-04-01T02:17:30.315Z,100335.69
2023-04-01T02:20:16.728Z,100330.44
2023-04-01T02:22:48.895Z,100338.78
2023-04-01T02:25:26.091Z,100345.06
2023-04-01T02:27:53.798Z,100343.38
2023-04-01T02:30:21.980Z,100344.41
2023-04-01T02:32:49.948Z,100352.38
2023-04-01T02:35:18.511Z,100348.81
2023-04-01T02:37:49.558Z,100348.81
2023-04-01T02:40:17.854Z,100351.34
2023-04-01T02:42:45.045Z,100352.38
2023-04-01T02:45:14.304Z,100358.66
2023-04-01T02:47:41.474Z,100353.41
2023-04-01T02:50:09.051Z,100362.41
2023-04-01T02:52:42.024Z,100360.72
2023-04-01T02:55:09.287Z,100354.44
2023-04-01T02:57:36.006Z,100357.81
2023-04-01T03:00:08.906Z,100362.59
2023-04-01T03:02:36.754Z,100366.34
2023-04-01T03:05:03.769Z,100369.06
2023-04-01T03:07:30.498Z,100373.66
2023-04-01T03:09:57.299Z,100375.34
2023-04-01T03:12:24.003Z,100374.50
2023-04-01T03:14:50.893Z,100377.22
2023-04-01T03:17:17.673Z,100378.91
2023-04-01T03:19:44.419Z,100380.59
2023-04-01T03:22:13.961Z,100387.75
2023-04-01T03:25:40.479Z,100379.59
2023-04-01T03:29:07.844Z,100382.31
2023-04-01T03:32:34.464Z,100385.03
2023-04-01T03:35:01.162Z,100395.91
2023-04-01T03:37:27.925Z,100395.03
2023-04-01T03:39:55.060Z,100392.50
2023-04-01T03:42:22.066Z,100402.53
2023-04-01T03:44:48.945Z,100403.56
2023-04-01T03:47:15.688Z,100412.72
2023-04-01T03:49:49.212Z,100407.66
2023-04-01T03:52:16.077Z,100412.91
2023-04-01T03:54:42.842Z,100405.81
2023-04-01T03:57:09.753Z,100413.28
2023-04-01T03:59:36.541Z,100415.34
2023-04-01T04:02:12.504Z,100422.81
2023-04-01T04:04:39.274Z,100419.09
2023-04-01T04:07:05.962Z,100419.91
2023-04-01T04:09:33.056Z,100422.81
2023-04-01T04:12:00.295Z,100428.25
2023-04-01T04:14:27.163Z,100430.97
2023-04-01T04:16:54.163Z,100430.13
2023-04-01T04:19:21.000Z,100437.44
2023-04-01T04:21:47.653Z,100434.88
2023-04-01T04:24:14.451Z,100440.50
2023-04-01T04:26:41.135Z,100434.41
2023-04-01T04:29:07.941Z,100441.53
2023-04-01T04:31:34.841Z,100445.28
2023-04-01T04:34:02.471Z,100446.50
2023-04-01T04:36:29.183Z,100454.47
2023-04-01T04:38:56.179Z,100450.22
2023-04-01T04:41:23.247Z,100455.84
2023-04-01T04:43:55.833Z,100458.56
2023-04-01T04:46:30.248Z,100465.69
2023-04-01T04:48:57.686Z,100462.28
2023-04-01T04:51:24.759Z,100472.50
2023-04-01T04:53:53.012Z,100472.50
2023-04-01T04:56:23.805Z,100477.75
2023-04-01T04:58:50.786Z,100482.38
2023-04-01T05:01:20.764Z,100481.50
2023-04-01T05:03:47.933Z,100485.22
2023-04-01T05:06:16.236Z,100495.97
2023-04-01T05:08:51.091Z,100493.91
2023-04-01T05:11:19.827Z,100498.31
2023-04-01T05:13:46.682Z,100503.75
2023-04-01T05:16:23.240Z,100501.88
2023-04-01T05:18:50.015Z,100503.94
2023-04-01T05:21:17.117Z,100506.66
2023-04-01T05:23:44.925Z,100511.91
2023-04-01T05:26:14.510Z,100521.72
2023-04-01T05:28:41.728Z,100512.91
2023-04-01T05:31:09.252Z,100521.06
2023-04-01T05:33:36.418Z,100529.06
2023-04-01T05:36:11.721Z,100537.22
2023-04-01T05:38:39.107Z,100539.56
2023-04-01T05:41:06.041Z,100542.09
2023-04-01T05:43:36.640Z,100543.81
2023-04-01T05:46:03.606Z,100547.41
2023-04-01T05:48:30.396Z,100554.31
2023-04-01T05:50:57.265Z,100558.75
2023-04-01T05:53:24.068Z,100558.56
2023-04-01T05:55:50.837Z,100565.88
2023-04-01T05:58:21.650Z,100569.44
2023-04-01T06:00:51.612Z,100573.03
2023-04-01T06:03:26.225Z,100586.44
2023-04-01T06:05:53.126Z,100572.84
2023-04-01T06:08:20.708Z,100585.56
2023-04-01T06:11:25.228Z,100590.19
2023-04-01T06:14:06.409Z,100593.91
2023-04-01T06:17:30.860Z,100599.34
2023-04-01T06:20:13.030Z,100600.22
2023-04-01T06:23:13.758Z,100617.19
2023-04-01T06:25:43.166Z,100615.31
2023-04-01T06:28:38.180Z,100618.72
2023-04-01T06:31:20.343Z,100624.50
2023-04-01T06:34:15.090Z,100629.06
2023-04-01T06:36:51.612Z,100637.94
2023-04-01T06:39:24.365Z,100643.34
2023-04-01T06:42:15.434Z,100644.19
2023-04-01T06:44:50.194Z,100649.47
2023-04-01T06:47:34.876Z,100663.56
2023-04-01T06:50:32.692Z,100657.94
2023-04-01T06:53:17.538Z,100666.09
2023-04-01T06:55:56.977Z,100676.31
2023-04-01T06:58:27.468Z,100674.44
2023-04-01T07:01:05.238Z,100684.31
2023-04-01T07:03:41.019Z,100683.25
2023-04-01T07:06:13.855Z,100696.53
2023-04-01T07:08:43.033Z,100703.66
2023-04-01T07:11:28.368Z,100704.16
2023-04-01T07:14:24.030Z,100718.09
2023-04-01T07:17:23.358Z,100722.16
2023-04-01T07:19:56.249Z,100731.16
2023-04-01T07:22:28.959Z,100733.91
2023-04-01T07:24:55.907Z,100738.97
2023-04-01T07:27:22.562Z,100742.88
2023-04-01T07:29:49.316Z,100745.59
2023-04-01T07:32:51.702Z,100755.81
2023-04-01T07:35:33.238Z,100748.00
2023-04-01T07:38:27.120Z,100767.19
2023-04-01T07:41:11.659Z,100769.91
2023-04-01T07:43:56.409Z,100779.97
2023-04-01T07:46:43.439Z,100787.94
2023-04-01T07:49:45.655Z,100791.53
2023-04-01T07:52:49.936Z,100806.81
2023-04-01T07:55:23.582Z,100805.13
2023-04-01T07:58:22.019Z,100810.56
2023-04-01T08:01:14.783Z,100816.00
2023-04-01T08:04:00.698Z,100827.91
2023-04-01T08:06:39.772Z,100827.72
2023-04-01T08:09:18.439Z,100839.09
2023-04-01T08:12:05.338Z,100840.81
2023-04-01T08:14:52.179Z,100851.53
2023-04-01T08:17:29.673Z,100857.47
2023-04-01T08:20:09.495Z,100860.56
2023-04-01T08:22:44.143Z,100869.75
2023-04-01T08:25:18.994Z,100874.66
2023-04-01T08:27:50.033Z,100884.38
2023-04-01T08:30:21.505Z,100893.06
2023-04-01T08:32:58.664Z,100896.25
2023-04-01T08:35:34.910Z,100903.25
2023-04-01T08:38:12.204Z,100902.53
2023-04-01T08:40:59.713Z,100904.75
2023-04-01T08:43:50.723Z,100912.75
2023-04-01T08:46:20.324Z,100917.31
2023-04-01T08:49:17.486Z,100926.00
2023-04-01T08:52:04.891Z,100926.81
2023-04-01T08:54:49.700Z,100935.69
2023-04-01T08:57:46.918Z,100935.69
2023-04-01T09:00:33.559Z,100948.59
2023-04-01T09:03:37.750Z,100946.56
2023-04-01T09:06:40.874Z,100956.41
2023-04-01T09:09:31.008Z,100956.75
2023-04-01T09:12:23.389Z,100957.06
2023-04-01T09:15:03.378Z,100966.25
2023-04-01T09:17:48.614Z,100982.41
2023-04-01T09:20:52.928Z,100978.59
2023-04-01T09:23:46.951Z,100982.34
2023-04-01T09:26:25.854Z,100990.34
2023-04-01T09:29:09.902Z,100989.28
2023-04-01T09:32:10.463Z,100996.09
2023-04-01T09:34:54.283Z,101001.50
2023-04-01T09:37:52.928Z,101000.28
2023-04-01T09:40:25.520Z,101010.31
2023-04-01T09:43:16.390Z,101004.81
2023-04-01T09:45:47.495Z,101013.97
2023-04-01T09:48:52.084Z,101025.63
2023-04-01T09:51:46.896Z,101019.38
2023-04-01T09:54:33.539Z,101026.97
2023-04-01T09:57:31.358Z,101019.03
2023-04-01T10:00:10.698Z,101027.81
2023-04-01T10:03:08.415Z,101036.97
2023-04-01T10:06:00.834Z,101035.94
2023-04-01T10:08:56.794Z,101040.38
2023-04-01T10:11:58.207Z,101054.09
2023-04-01T10:14:32.976Z,101055.34
2023-04-01T10:17:14.756Z,101065.41
2023-04-01T10:20:00.004Z,101071.44
2023-04-01T10:22:38.569Z,101075.47
2023-04-01T10:25:56.288Z,101076.50
2023-04-01T10:28:40.131Z,101082.19
2023-04-01T10:31:12.662Z,101089.38
2023-04-01T10:33:59.108Z,101091.28
2023-04-01T10:36:37.789Z,101100.03
2023-04-01T10:39:23.754Z,101101.13
2023-04-01T10:42:24.410Z,101110.44
2023-04-01T10:45:17.085Z,101121.78
2023-04-01T10:47:59.228Z,101119.00
2023-04-01T10:50:34.553Z,101120.53
2023-04-01T10:53:05.482Z,101128.13
2023-04-01T10:55:38.498Z,101128.84
2023-04-01T10:58:27.079Z,101129.94
2023-04-01T11:01:32.952Z,101139.69
2023-04-01T11:04:20.703Z,101140.97
2023-04-01T11:07:25.327Z,101153.38
2023-04-01T11:10:19.723Z,101153.13
2023-04-01T11:13:04.943Z,101156.53
2023-04-01T11:15:50.554Z,101170.13
2023-04-01T11:18:46.501Z,101170.03
2023-04-01T11:21:16.544Z,101171.38
2023-04-01T11:24:08.977Z,101168.94
2023-04-01T11:27:06.125Z,101170.00
2023-04-01T11:30:06.526Z,101178.19
2023-04-01T11:32:47.812Z,101186.22
2023-04-01T11:35:43.982Z,101192.81
2023-04-01T11:38:44.105Z,101194.75
2023-04-01T11:41:23.088Z,101203.03
2023-04-01T11:44:16.288Z,101206.88
2023-04-01T11:46:43.157Z,101212.28
2023-04-01T11:49:37.998Z,101222.19
2023-04-01T11:52:32.435Z,101220.28
2023-04-01T11:54:59.176Z,101215.28
2023-04-01T11:57:31.724Z,101214.59
2023-04-01T12:00:24.140Z,101228.78
2023-04-01T12:02:53.953Z,101232.47
2023-04-01T12:05:47.674Z,101237.81
2023-04-01T12:08:25.367Z,101237.28
2023-04-01T12:11:06.535Z,101237.41
2023-04-01T12:13:39.125Z,101243.81
2023-04-01T12:16:56.495Z,101246.44
2023-04-01T12:19:44.718Z,101251.31
2023-04-01T12:22:31.317Z,101257.22
2023-04-01T12:25:16.232Z,101255.44
2023-04-01T12:27:46.894Z,101266.03
2023-04-01T12:30:51.396Z,101269.16
2023-04-01T12:33:30.109Z,101276.53
2023-04-01T12:36:20.271Z,101271.75
2023-04-01T12:39:33.634Z,101280.09
2023-04-01T12:42:34.533Z,101288.94
2023-04-01T12:45:20.579Z,101293.25
2023-04-01T12:47:53.520Z,101295.06
2023-04-01T12:50:52.987Z,101303.31
2023-04-01T12:53:41.530Z,101303.59
2023-04-01T12:56:33.675Z,101303.25
2023-04-01T12:59:48.522Z,101306.97
2023-04-01T13:02:21.184Z,101312.19
2023-04-01T13:05:03.556Z,101309.63
2023-04-01T13:07:50.190Z,101317.00
2023-04-01T13:11:04.849Z,101324.25
2023-04-01T13:14:02.691Z,101326.56
2023-04-01T13:16:40.071Z,101329.31
2023-04-01T13:19:48.604Z,101333.47
2023-04-01T13:22:51.653Z,101336.81
2023-04-01T13:26:13.867Z,101347.31
2023-04-01T13:28:55.101Z,101344.78
2023-04-01T13:32:18.051Z,101344.91
2023-04-01T13:35:06.336Z,101350.16
2023-04-01T13:37:43.364Z,101358.50
2023-04-01T13:40:42.781Z,101360.09
2023-04-01T13:43:17.416Z,101373.13
2023-04-01T13:45:47.014Z,101366.97
2023-04-01T13:48:48.882Z,101381.72
2023-04-01T13:51:54.886Z,101388.00
2023-04-01T13:54:39.314Z,101381.09
2023-04-01T13:57:18.047Z,101390.88
2023-04-01T13:59:53.803Z,101389.56
2023-04-01T14:02:23.314Z,101397.13
2023-04-01T14:05:05.108Z,101400.72
2023-04-01T14:08:09.071Z,101412.09
2023-04-01T14:10:52.482Z,101411.66
2023-04-01T14:13:57.813Z,101418.25
2023-04-01T14:16:56.562Z,101416.78
2023-04-01T14:19:29.972Z,101423.06
2023-04-01T14:22:36.270Z,101428.41
2023-04-01T14:25:35.018Z,101437.84
2023-04-01T14:28:43.556Z,101442.22
2023-04-01T14:31:45.341Z,101450.97
2023-04-01T14:34:46.407Z,101451.16
2023-04-01T14:37:18.857Z,101466.69
2023-04-01T14:40:08.560Z,101470.75
2023-04-01T14:43:15.944Z,101469.63
2023-04-01T14:46:30.605Z,101482.56
2023-04-01T14:49:02.986Z,101477.97
2023-04-01T14:51:32.377Z,101484.97
2023-04-01T14:54:24.097Z,101490.63
2023-04-01T14:57:13.699Z,101494.09
2023-04-01T15:00:11.201Z,101511.53
2023-04-01T15:02:52.309Z,101507.13
2023-04-01T15:05:48.722Z,101504.75
2023-04-01T15:09:07.032Z,101514.47
2023-04-01T15:12:34.817Z,101525.44
2023-04-01T15:15:56.794Z,101516.69
2023-04-01T15:18:46.439Z,101529.75
2023-04-01T15:21:57.708Z,101535.22
2023-04-01T15:24:44.386Z,101540.03
2023-04-01T15:28:15.941Z,101561.56
2023-04-01T15:31:24.646Z,101566.84
2023-04-01T15:34:30.124Z,101558.97
2023-04-01T15:37:39.485Z,101577.25
2023-04-01T15:41:24.293Z,101574.03
2023-04-01T15:48:53.883Z,101586.50
2023-04-01T15:51:46.363Z,101602.56
2023-04-01T15:55:10.653Z,101606.97
2023-04-01T15:58:17.309Z,101620.28
2023-04-01T16:01:22.017Z,101636.00
2023-04-01T16:04:17.607Z,101628.84
2023-04-01T16:08:05.350Z,101627.00
2023-04-01T16:10:54.415Z,101630.22
2023-04-01T16:14:23.741Z,101631.06
2023-04-01T16:17:29.515Z,101654.63
2023-04-01T16:20:39.089Z,101656.59
2023-04-01T16:27:42.974Z,101673.41
2023-04-01T16:31:17.327Z,101678.13
2023-04-01T16:35:02.729Z,101693.97
2023-04-01T16:41:13.131Z,101704.41
2023-04-01T16:44:19.857Z,101710.31
2023-04-01T16:47:46.557Z,101714.72
2023-04-01T18:22:23.660Z,101925.66
2023-04-01T18:25:20.094Z,101931.69
2023-04-01T18:28:16.328Z,101936.88
2023-04-01T18:30:45.382Z,101943.47
2023-04-01T18:33:32.883Z,101958.78
2023-04-01T18:36:14.524Z,101968.28
2023-04-01T18:38:51.782Z,101967.84
2023-04-01T18:42:13.623Z,101978.75
2023-04-01T18:44:50.068Z,101978.75
2023-04-01T18:48:12.330Z,101979.03
2023-04-01T18:51:37.920Z,101987.47
2023-04-01T18:58:52.131Z,101993.66
2023-04-01T19:02:37.084Z,102010.00
2023-04-01T19:09:37.754Z,102026.75
2023-04-01T19:12:59.574Z,102031.63
2023-04-01T19:15:57.986Z,102033.34
2023-04-01T19:18:39.926Z,102038.78
2023-04-01T19:21:25.836Z,102035.63
2023-04-01T19:24:17.659Z,102052.25
2023-04-01T19:27:27.012Z,102049.53
2023-04-01T19:34:43.392Z,102066.88
2023-04-01T19:38:16.014Z,102070.56
2023-04-01T19:41:14.769Z,102073.31
2023-04-01T19:44:36.033Z,102083.75
2023-04-01T19:48:23.695Z,102088.44
2023-04-01T19:55:12.383Z,102093.03
2023-04-01T19:58:07.153Z,102102.63
2023-04-01T20:00:43.773Z,102097.47
2023-04-01T20:03:22.877Z,102114.78
2023-04-01T20:06:17.934Z,102115.06
2023-04-01T20:09:19.793Z,102119.78
2023-04-01T20:12:51.895Z,102127.09
2023-04-01T20:16:26.642Z,102131.66
2023-04-01T20:19:53.177Z,102134.66
2023-04-01T20:22:55.918Z,102137.66
2023-04-01T20:26:11.778Z,102143.38
2023-04-01T20:29:24.633Z,102144.66
2023-04-01T20:32:13.342Z,102150.09
2023-04-01T20:35:30.423Z,102153.66
2023-04-01T20:38:38.997Z,102158.41
2023-04-01T20:41:24.656Z,102168.41
2023-04-01T20:44:29.514Z,102176.56
2023-04-01T20:47:28.299Z,102183.03
2023-04-01T20:50:17.692Z,102190.31
2023-04-01T20:53:16.580Z,102191.28
2023-04-01T20:56:31.247Z,102194.00
2023-04-01T20:59:45.628Z,102204.78
2023-04-01T21:02:41.659Z,102211.22
2023-04-01T21:05:46.506Z,102215.91
2023-04-01T21:09:07.791Z,102225.09
2023-04-01T21:11:40.491Z,102233.34
2023-04-01T21:14:32.239Z,102226.09
2023-04-01T21:21:54.528Z,102235.38
2023-04-01T21:25:13.273Z,102238.09
2023-04-01T21:27:55.453Z,102248.13
2023-04-01T21:30:45.048Z,102247.22
2023-04-01T21:34:28.422Z,102251.06
2023-04-01T21:37:43.629Z,102253.69
2023-04-01T21:44:40.554Z,102261.38
2023-04-01T21:47:38.273Z,102271.38
2023-04-01T21:50:31.001Z,102274.22
2023-04-01T21:53:16.179Z,102267.09
2023-04-01T21:56:16.784Z,102281.53
2023-04-01T21:59:12.483Z,102284.25
2023-04-01T22:02:17.344Z,102291.56
2023-04-01T22:05:32.920Z,102302.44
2023-04-01T22:08:22.122Z,102314.44
2023-04-01T22:11:13.285Z,102312.44
2023-04-01T22:14:35.008Z,102316.03
2023-04-01T22:17:46.307Z,102317.16
2023-04-01T22:21:35.087Z,102330.28
2023-04-01T22:25:13.939Z,102342.91
2023-04-01T22:28:12.435Z,102337.59
2023-04-01T22:31:53.999Z,102337.59
2023-04-01T22:35:48.313Z,102342.16
2023-04-01T22:39:13.204Z,102339.44
2023-04-01T22:42:40.736Z,102344.72
2023-04-01T22:45:34.262Z,102351.06
2023-04-01T22:48:33.099Z,102354.75
2023-04-01T22:52:05.574Z,102366.03
2023-04-01T23:00:03.931Z,102358.72
2023-04-01T23:03:45.777Z,102369.88
2023-04-01T23:07:12.352Z,102375.44
2023-04-01T23:10:38.942Z,102381.88
2023-04-01T23:14:05.549Z,102387.44
2023-04-01T23:17:41.174Z,102402.00
2023-04-01T23:20:43.534Z,102395.84
2023-04-01T23:23:58.936Z,102390.53
2023-04-01T23:27:40.229Z,102393.50
2023-04-01T23:30:53.002Z,102388.44
2023-04-01T23:37:33.711Z,102402.06
2023-04-01T23:41:00.253Z,102413.22
